sensor_id;sensor_type;location;lat;lon;timestamp;P1;durP1;ratioP1;P2;durP2;ratioP2
33006;SDS011;19361;51.598;7.650;2023-07-13T00:04:00;8.75;;;2.38;;
33006;SDS011;19361;51.598;7.650;2023-07-13T00:09:22;4.35;;;1.73;;
33006;SDS011;19361;51.598;7.650;2023-07-13T00:14:43;4.07;;;2.05;;
33006;SDS011;19361;51.598;7.650;2023-07-13T00:20:04;5.03;;;2.10;;
33006;SDS011;19361;51.598;7.650;2023-07-13T00:25:27;4.22;;;2.00;;
33006;SDS011;19361;51.598;7.650;2023-07-13T00:30:48;8.48;;;2.25;;
33006;SDS011;19361;51.598;7.650;2023-07-13T00:36:09;7.43;;;1.90;;
33006;SDS011;19361;51.598;7.650;2023-07-13T00:41:31;6.30;;;2.70;;
33006;SDS011;19361;51.598;7.650;2023-07-13T00:46:52;5.18;;;2.28;;
33006;SDS011;19361;51.598;7.650;2023-07-13T00:52:13;3.95;;;1.70;;
33006;SDS011;19361;51.598;7.650;2023-07-13T00:57:34;6.00;;;2.25;;
33006;SDS011;19361;51.598;7.650;2023-07-13T01:02:55;4.85;;;2.30;;
33006;SDS011;19361;51.598;7.650;2023-07-13T01:08:17;4.80;;;2.03;;
33006;SDS011;19361;51.598;7.650;2023-07-13T01:13:38;4.63;;;1.80;;
33006;SDS011;19361;51.598;7.650;2023-07-13T01:18:59;5.35;;;1.88;;
33006;SDS011;19361;51.598;7.650;2023-07-13T01:24:21;4.78;;;1.95;;
33006;SDS011;19361;51.598;7.650;2023-07-13T01:29:43;2.75;;;1.65;;
33006;SDS011;19361;51.598;7.650;2023-07-13T01:35:07;4.93;;;1.60;;
33006;SDS011;19361;51.598;7.650;2023-07-13T01:40:29;3.45;;;1.75;;
33006;SDS011;19361;51.598;7.650;2023-07-13T01:45:50;4.72;;;2.08;;
33006;SDS011;19361;51.598;7.650;2023-07-13T01:51:11;3.45;;;1.77;;
33006;SDS011;19361;51.598;7.650;2023-07-13T01:56:33;5.45;;;1.80;;
33006;SDS011;19361;51.598;7.650;2023-07-13T02:01:54;5.20;;;2.17;;
33006;SDS011;19361;51.598;7.650;2023-07-13T02:07:15;6.93;;;1.70;;
33006;SDS011;19361;51.598;7.650;2023-07-13T02:12:36;6.18;;;1.80;;
33006;SDS011;19361;51.598;7.650;2023-07-13T02:17:58;3.08;;;1.52;;
33006;SDS011;19361;51.598;7.650;2023-07-13T02:23:19;4.05;;;1.85;;
33006;SDS011;19361;51.598;7.650;2023-07-13T02:28:40;3.63;;;1.40;;
33006;SDS011;19361;51.598;7.650;2023-07-13T02:34:02;4.88;;;2.20;;
33006;SDS011;19361;51.598;7.650;2023-07-13T02:39:24;4.70;;;2.00;;
33006;SDS011;19361;51.598;7.650;2023-07-13T02:44:45;6.85;;;1.70;;
33006;SDS011;19361;51.598;7.650;2023-07-13T02:50:06;6.15;;;1.33;;
33006;SDS011;19361;51.598;7.650;2023-07-13T02:55:28;4.85;;;1.55;;
33006;SDS011;19361;51.598;7.650;2023-07-13T03:00:49;5.70;;;1.70;;
33006;SDS011;19361;51.598;7.650;2023-07-13T03:06:10;8.38;;;1.70;;
33006;SDS011;19361;51.598;7.650;2023-07-13T03:11:32;2.95;;;1.52;;
33006;SDS011;19361;51.598;7.650;2023-07-13T03:16:53;5.68;;;1.77;;
33006;SDS011;19361;51.598;7.650;2023-07-13T03:22:14;4.15;;;1.50;;
33006;SDS011;19361;51.598;7.650;2023-07-13T03:27:37;4.38;;;1.98;;
33006;SDS011;19361;51.598;7.650;2023-07-13T03:32:58;4.07;;;1.38;;
33006;SDS011;19361;51.598;7.650;2023-07-13T03:38:19;3.03;;;1.48;;
33006;SDS011;19361;51.598;7.650;2023-07-13T03:43:40;4.43;;;1.85;;
33006;SDS011;19361;51.598;7.650;2023-07-13T03:49:03;5.20;;;1.67;;
33006;SDS011;19361;51.598;7.650;2023-07-13T03:54:25;5.85;;;1.80;;
33006;SDS011;19361;51.598;7.650;2023-07-13T03:59:46;3.67;;;1.63;;
33006;SDS011;19361;51.598;7.650;2023-07-13T04:05:07;9.93;;;1.63;;
33006;SDS011;19361;51.598;7.650;2023-07-13T04:10:29;6.32;;;1.80;;
33006;SDS011;19361;51.598;7.650;2023-07-13T04:15:50;5.93;;;1.80;;
33006;SDS011;19361;51.598;7.650;2023-07-13T04:21:12;3.72;;;1.80;;
33006;SDS011;19361;51.598;7.650;2023-07-13T04:26:34;2.92;;;1.42;;
33006;SDS011;19361;51.598;7.650;2023-07-13T04:31:56;3.08;;;1.58;;
33006;SDS011;19361;51.598;7.650;2023-07-13T04:37:17;3.45;;;1.90;;
33006;SDS011;19361;51.598;7.650;2023-07-13T04:42:38;3.00;;;1.60;;
33006;SDS011;19361;51.598;7.650;2023-07-13T04:47:59;6.13;;;1.85;;
33006;SDS011;19361;51.598;7.650;2023-07-13T04:53:20;7.15;;;1.65;;
33006;SDS011;19361;51.598;7.650;2023-07-13T04:58:41;4.53;;;1.70;;
33006;SDS011;19361;51.598;7.650;2023-07-13T05:04:02;6.35;;;2.10;;
33006;SDS011;19361;51.598;7.650;2023-07-13T05:09:23;8.57;;;2.10;;
33006;SDS011;19361;51.598;7.650;2023-07-13T05:14:44;4.20;;;1.75;;
33006;SDS011;19361;51.598;7.650;2023-07-13T05:20:06;4.80;;;1.60;;
33006;SDS011;19361;51.598;7.650;2023-07-13T05:25:29;5.38;;;1.80;;
33006;SDS011;19361;51.598;7.650;2023-07-13T05:30:50;9.27;;;1.63;;
33006;SDS011;19361;51.598;7.650;2023-07-13T05:36:12;6.82;;;2.03;;
33006;SDS011;19361;51.598;7.650;2023-07-13T05:41:33;6.35;;;2.08;;
33006;SDS011;19361;51.598;7.650;2023-07-13T05:46:54;7.70;;;2.17;;
33006;SDS011;19361;51.598;7.650;2023-07-13T05:52:16;4.53;;;1.73;;
33006;SDS011;19361;51.598;7.650;2023-07-13T05:57:37;5.18;;;1.80;;
33006;SDS011;19361;51.598;7.650;2023-07-13T06:02:59;5.78;;;2.33;;
33006;SDS011;19361;51.598;7.650;2023-07-13T06:08:20;9.00;;;2.15;;
33006;SDS011;19361;51.598;7.650;2023-07-13T06:13:41;5.30;;;2.30;;
33006;SDS011;19361;51.598;7.650;2023-07-13T06:19:02;7.30;;;2.70;;
33006;SDS011;19361;51.598;7.650;2023-07-13T06:24:24;8.25;;;2.35;;
33006;SDS011;19361;51.598;7.650;2023-07-13T06:29:45;5.63;;;3.28;;
33006;SDS011;19361;51.598;7.650;2023-07-13T06:35:06;10.23;;;2.53;;
33006;SDS011;19361;51.598;7.650;2023-07-13T06:40:27;5.00;;;2.25;;
33006;SDS011;19361;51.598;7.650;2023-07-13T06:45:51;6.65;;;2.00;;
33006;SDS011;19361;51.598;7.650;2023-07-13T06:51:15;11.73;;;2.47;;
33006;SDS011;19361;51.598;7.650;2023-07-13T06:56:36;7.55;;;2.17;;
33006;SDS011;19361;51.598;7.650;2023-07-13T07:01:57;8.15;;;2.97;;
33006;SDS011;19361;51.598;7.650;2023-07-13T07:07:18;6.25;;;2.45;;
33006;SDS011;19361;51.598;7.650;2023-07-13T07:12:39;8.43;;;2.25;;
33006;SDS011;19361;51.598;7.650;2023-07-13T07:18:00;10.57;;;3.08;;
33006;SDS011;19361;51.598;7.650;2023-07-13T07:23:21;8.65;;;2.88;;
33006;SDS011;19361;51.598;7.650;2023-07-13T07:28:43;8.45;;;2.92;;
33006;SDS011;19361;51.598;7.650;2023-07-13T07:34:04;7.68;;;2.60;;
33006;SDS011;19361;51.598;7.650;2023-07-13T07:39:25;9.38;;;2.75;;
33006;SDS011;19361;51.598;7.650;2023-07-13T07:44:46;9.00;;;2.40;;
33006;SDS011;19361;51.598;7.650;2023-07-13T07:50:07;7.78;;;2.38;;
33006;SDS011;19361;51.598;7.650;2023-07-13T07:55:29;11.27;;;2.45;;
33006;SDS011;19361;51.598;7.650;2023-07-13T08:00:53;9.75;;;2.47;;
33006;SDS011;19361;51.598;7.650;2023-07-13T08:06:14;8.82;;;2.35;;
33006;SDS011;19361;51.598;7.650;2023-07-13T08:16:49;7.85;;;2.05;;
33006;SDS011;19361;51.598;7.650;2023-07-13T08:22:10;6.30;;;1.90;;
33006;SDS011;19361;51.598;7.650;2023-07-13T08:27:31;6.93;;;2.15;;
33006;SDS011;19361;51.598;7.650;2023-07-13T08:32:53;2.35;;;1.52;;
33006;SDS011;19361;51.598;7.650;2023-07-13T08:38:15;5.85;;;1.75;;
33006;SDS011;19361;51.598;7.650;2023-07-13T08:43:37;2.28;;;1.50;;
33006;SDS011;19361;51.598;7.650;2023-07-13T08:49:00;4.53;;;1.98;;
33006;SDS011;19361;51.598;7.650;2023-07-13T08:54:32;5.40;;;1.88;;
33006;SDS011;19361;51.598;7.650;2023-07-13T08:59:59;6.93;;;2.33;;
33006;SDS011;19361;51.598;7.650;2023-07-13T09:05:30;4.03;;;1.90;;
33006;SDS011;19361;51.598;7.650;2023-07-13T09:11:06;5.60;;;2.00;;
33006;SDS011;19361;51.598;7.650;2023-07-13T09:16:40;6.15;;;1.95;;
33006;SDS011;19361;51.598;7.650;2023-07-13T09:22:02;4.53;;;2.22;;
33006;SDS011;19361;51.598;7.650;2023-07-13T09:27:33;6.70;;;2.10;;
33006;SDS011;19361;51.598;7.650;2023-07-13T09:33:00;8.20;;;2.30;;
33006;SDS011;19361;51.598;7.650;2023-07-13T09:38:21;4.55;;;1.77;;
33006;SDS011;19361;51.598;7.650;2023-07-13T09:44:00;6.88;;;2.45;;
33006;SDS011;19361;51.598;7.650;2023-07-13T09:49:32;3.95;;;1.80;;
33006;SDS011;19361;51.598;7.650;2023-07-13T09:54:58;5.07;;;2.25;;
33006;SDS011;19361;51.598;7.650;2023-07-13T10:00:20;9.32;;;2.25;;
33006;SDS011;19361;51.598;7.650;2023-07-13T10:05:46;4.97;;;1.90;;
33006;SDS011;19361;51.598;7.650;2023-07-13T10:11:20;4.70;;;2.03;;
33006;SDS011;19361;51.598;7.650;2023-07-13T10:16:49;7.07;;;2.38;;
33006;SDS011;19361;51.598;7.650;2023-07-13T10:27:58;4.72;;;2.13;;
33006;SDS011;19361;51.598;7.650;2023-07-13T10:33:30;4.70;;;2.10;;
33006;SDS011;19361;51.598;7.650;2023-07-13T10:38:51;8.75;;;2.25;;
33006;SDS011;19361;51.598;7.650;2023-07-13T10:44:19;4.63;;;1.98;;
33006;SDS011;19361;51.598;7.650;2023-07-13T10:49:46;4.00;;;1.90;;
33006;SDS011;19361;51.598;7.650;2023-07-13T11:06:38;5.32;;;2.25;;
33006;SDS011;19361;51.598;7.650;2023-07-13T11:17:47;5.05;;;1.83;;
33006;SDS011;19361;51.598;7.650;2023-07-13T11:28:32;4.60;;;2.22;;
33006;SDS011;19361;51.598;7.650;2023-07-13T11:33:56;5.40;;;2.00;;
33006;SDS011;19361;51.598;7.650;2023-07-13T11:39:19;5.82;;;2.38;;
33006;SDS011;19361;51.598;7.650;2023-07-13T11:44:50;5.40;;;2.22;;
33006;SDS011;19361;51.598;7.650;2023-07-13T11:50:18;5.55;;;2.40;;
33006;SDS011;19361;51.598;7.650;2023-07-13T11:55:41;7.03;;;2.42;;
33006;SDS011;19361;51.598;7.650;2023-07-13T12:01:03;5.70;;;2.15;;
33006;SDS011;19361;51.598;7.650;2023-07-13T12:11:51;7.57;;;2.63;;
33006;SDS011;19361;51.598;7.650;2023-07-13T12:17:15;5.45;;;2.80;;
33006;SDS011;19361;51.598;7.650;2023-07-13T12:22:45;4.07;;;1.92;;
33006;SDS011;19361;51.598;7.650;2023-07-13T12:28:20;3.35;;;1.90;;
33006;SDS011;19361;51.598;7.650;2023-07-13T12:34:00;4.43;;;1.70;;
33006;SDS011;19361;51.598;7.650;2023-07-13T12:39:34;7.15;;;2.55;;
33006;SDS011;19361;51.598;7.650;2023-07-13T12:45:00;2.47;;;1.50;;
33006;SDS011;19361;51.598;7.650;2023-07-13T12:50:43;2.88;;;1.75;;
33006;SDS011;19361;51.598;7.650;2023-07-13T12:56:10;3.45;;;1.73;;
33006;SDS011;19361;51.598;7.650;2023-07-13T13:01:43;4.03;;;1.60;;
33006;SDS011;19361;51.598;7.650;2023-07-13T13:07:05;3.88;;;1.88;;
33006;SDS011;19361;51.598;7.650;2023-07-13T13:12:30;4.13;;;1.88;;
33006;SDS011;19361;51.598;7.650;2023-07-13T13:17:52;2.78;;;1.75;;
33006;SDS011;19361;51.598;7.650;2023-07-13T13:23:14;4.05;;;2.10;;
33006;SDS011;19361;51.598;7.650;2023-07-13T13:28:38;3.60;;;1.88;;
33006;SDS011;19361;51.598;7.650;2023-07-13T13:33:59;4.30;;;1.80;;
33006;SDS011;19361;51.598;7.650;2023-07-13T13:39:21;5.05;;;2.20;;
33006;SDS011;19361;51.598;7.650;2023-07-13T13:44:48;3.90;;;1.67;;
33006;SDS011;19361;51.598;7.650;2023-07-13T13:55:40;6.63;;;2.38;;
33006;SDS011;19361;51.598;7.650;2023-07-13T14:01:02;3.60;;;2.05;;
33006;SDS011;19361;51.598;7.650;2023-07-13T14:06:26;4.15;;;1.98;;
33006;SDS011;19361;51.598;7.650;2023-07-13T14:11:48;2.85;;;1.80;;
33006;SDS011;19361;51.598;7.650;2023-07-13T14:17:21;4.05;;;2.22;;
33006;SDS011;19361;51.598;7.650;2023-07-13T14:22:45;3.60;;;1.80;;
33006;SDS011;19361;51.598;7.650;2023-07-13T14:28:20;3.55;;;1.98;;
33006;SDS011;19361;51.598;7.650;2023-07-13T14:33:47;2.60;;;1.98;;
33006;SDS011;19361;51.598;7.650;2023-07-13T14:39:11;3.38;;;2.10;;
33006;SDS011;19361;51.598;7.650;2023-07-13T14:44:35;3.85;;;2.30;;
33006;SDS011;19361;51.598;7.650;2023-07-13T14:49:58;3.95;;;1.83;;
33006;SDS011;19361;51.598;7.650;2023-07-13T14:55:19;2.05;;;1.80;;
33006;SDS011;19361;51.598;7.650;2023-07-13T15:00:42;2.22;;;1.55;;
33006;SDS011;19361;51.598;7.650;2023-07-13T15:06:03;2.67;;;1.63;;
33006;SDS011;19361;51.598;7.650;2023-07-13T15:11:24;3.25;;;1.90;;
33006;SDS011;19361;51.598;7.650;2023-07-13T15:16:47;2.88;;;1.98;;
33006;SDS011;19361;51.598;7.650;2023-07-13T15:22:12;4.47;;;2.30;;
33006;SDS011;19361;51.598;7.650;2023-07-13T15:27:33;3.55;;;2.28;;
33006;SDS011;19361;51.598;7.650;2023-07-13T15:32:57;4.95;;;2.92;;
33006;SDS011;19361;51.598;7.650;2023-07-13T15:38:31;5.05;;;3.00;;
33006;SDS011;19361;51.598;7.650;2023-07-13T15:43:56;4.43;;;3.13;;
33006;SDS011;19361;51.598;7.650;2023-07-13T15:49:19;7.82;;;3.22;;
33006;SDS011;19361;51.598;7.650;2023-07-13T15:54:40;6.68;;;3.35;;
33006;SDS011;19361;51.598;7.650;2023-07-13T16:00:02;7.30;;;3.90;;
33006;SDS011;19361;51.598;7.650;2023-07-13T16:05:26;4.32;;;3.10;;
33006;SDS011;19361;51.598;7.650;2023-07-13T16:10:47;5.75;;;3.08;;
33006;SDS011;19361;51.598;7.650;2023-07-13T16:16:09;5.00;;;2.92;;
33006;SDS011;19361;51.598;7.650;2023-07-13T16:21:33;5.80;;;2.72;;
33006;SDS011;19361;51.598;7.650;2023-07-13T16:27:01;5.30;;;2.78;;
33006;SDS011;19361;51.598;7.650;2023-07-13T16:32:24;2.88;;;2.38;;
33006;SDS011;19361;51.598;7.650;2023-07-13T16:37:48;5.20;;;2.85;;
33006;SDS011;19361;51.598;7.650;2023-07-13T16:43:14;4.47;;;2.85;;
33006;SDS011;19361;51.598;7.650;2023-07-13T16:48:41;7.40;;;4.32;;
33006;SDS011;19361;51.598;7.650;2023-07-13T16:54:04;2.90;;;1.83;;
33006;SDS011;19361;51.598;7.650;2023-07-13T16:59:32;6.30;;;1.92;;
33006;SDS011;19361;51.598;7.650;2023-07-13T17:04:55;3.45;;;2.08;;
33006;SDS011;19361;51.598;7.650;2023-07-13T17:10:17;3.15;;;1.70;;
33006;SDS011;19361;51.598;7.650;2023-07-13T17:15:44;4.28;;;1.80;;
33006;SDS011;19361;51.598;7.650;2023-07-13T17:21:10;5.32;;;2.40;;
33006;SDS011;19361;51.598;7.650;2023-07-13T17:26:36;4.15;;;1.90;;
33006;SDS011;19361;51.598;7.650;2023-07-13T17:31:57;2.25;;;1.60;;
33006;SDS011;19361;51.598;7.650;2023-07-13T17:37:18;3.03;;;1.67;;
33006;SDS011;19361;51.598;7.650;2023-07-13T17:42:39;3.33;;;1.67;;
33006;SDS011;19361;51.598;7.650;2023-07-13T17:48:00;3.22;;;2.10;;
33006;SDS011;19361;51.598;7.650;2023-07-13T17:53:25;3.92;;;2.40;;
33006;SDS011;19361;51.598;7.650;2023-07-13T17:58:46;3.72;;;2.67;;
33006;SDS011;19361;51.598;7.650;2023-07-13T18:04:08;5.57;;;3.03;;
33006;SDS011;19361;51.598;7.650;2023-07-13T18:09:33;6.38;;;4.03;;
33006;SDS011;19361;51.598;7.650;2023-07-13T18:14:54;5.82;;;2.90;;
33006;SDS011;19361;51.598;7.650;2023-07-13T18:20:17;6.13;;;2.97;;
33006;SDS011;19361;51.598;7.650;2023-07-13T18:25:41;4.25;;;2.90;;
33006;SDS011;19361;51.598;7.650;2023-07-13T18:31:07;5.75;;;3.38;;
33006;SDS011;19361;51.598;7.650;2023-07-13T18:36:35;9.88;;;5.05;;
33006;SDS011;19361;51.598;7.650;2023-07-13T18:41:59;5.82;;;3.40;;
33006;SDS011;19361;51.598;7.650;2023-07-13T18:47:20;8.95;;;3.17;;
33006;SDS011;19361;51.598;7.650;2023-07-13T18:52:43;5.75;;;4.38;;
33006;SDS011;19361;51.598;7.650;2023-07-13T18:58:05;8.57;;;4.85;;
33006;SDS011;19361;51.598;7.650;2023-07-13T19:03:28;7.68;;;4.78;;
33006;SDS011;19361;51.598;7.650;2023-07-13T19:08:54;6.88;;;4.72;;
33006;SDS011;19361;51.598;7.650;2023-07-13T19:14:16;9.82;;;7.40;;
33006;SDS011;19361;51.598;7.650;2023-07-13T19:19:43;15.20;;;7.80;;
33006;SDS011;19361;51.598;7.650;2023-07-13T19:25:05;8.10;;;5.78;;
33006;SDS011;19361;51.598;7.650;2023-07-13T19:30:33;3.30;;;2.93;;
33006;SDS011;19361;51.598;7.650;2023-07-13T19:35:55;5.55;;;3.30;;
33006;SDS011;19361;51.598;7.650;2023-07-13T19:41:21;7.50;;;3.67;;
33006;SDS011;19361;51.598;7.650;2023-07-13T19:46:44;5.88;;;3.60;;
33006;SDS011;19361;51.598;7.650;2023-07-13T19:52:12;7.13;;;4.07;;
33006;SDS011;19361;51.598;7.650;2023-07-13T19:57:40;4.38;;;2.75;;
33006;SDS011;19361;51.598;7.650;2023-07-13T20:03:02;7.32;;;2.85;;
33006;SDS011;19361;51.598;7.650;2023-07-13T20:08:23;4.72;;;3.05;;
33006;SDS011;19361;51.598;7.650;2023-07-13T20:13:46;7.50;;;3.30;;
33006;SDS011;19361;51.598;7.650;2023-07-13T20:19:10;3.67;;;2.92;;
33006;SDS011;19361;51.598;7.650;2023-07-13T20:24:33;7.00;;;3.50;;
33006;SDS011;19361;51.598;7.650;2023-07-13T20:29:54;6.15;;;3.45;;
33006;SDS011;19361;51.598;7.650;2023-07-13T20:40:41;3.80;;;3.38;;
33006;SDS011;19361;51.598;7.650;2023-07-13T20:46:04;8.23;;;3.30;;
33006;SDS011;19361;51.598;7.650;2023-07-13T20:51:34;6.75;;;3.63;;
33006;SDS011;19361;51.598;7.650;2023-07-13T20:56:57;6.20;;;3.47;;
33006;SDS011;19361;51.598;7.650;2023-07-13T21:07:42;7.60;;;3.60;;
33006;SDS011;19361;51.598;7.650;2023-07-13T21:13:04;7.65;;;3.72;;
33006;SDS011;19361;51.598;7.650;2023-07-13T21:18:27;6.20;;;4.05;;
33006;SDS011;19361;51.598;7.650;2023-07-13T21:23:49;6.05;;;4.07;;
33006;SDS011;19361;51.598;7.650;2023-07-13T21:29:12;11.77;;;9.73;;
33006;SDS011;19361;51.598;7.650;2023-07-13T21:34:33;17.30;;;13.88;;
33006;SDS011;19361;51.598;7.650;2023-07-13T21:39:54;17.60;;;13.70;;
33006;SDS011;19361;51.598;7.650;2023-07-13T21:45:19;18.55;;;11.63;;
33006;SDS011;19361;51.598;7.650;2023-07-13T21:50:48;13.38;;;8.95;;
33006;SDS011;19361;51.598;7.650;2023-07-13T21:56:12;7.38;;;6.55;;
33006;SDS011;19361;51.598;7.650;2023-07-13T22:01:34;7.60;;;6.32;;
33006;SDS011;19361;51.598;7.650;2023-07-13T22:06:57;13.80;;;8.70;;
33006;SDS011;19361;51.598;7.650;2023-07-13T22:12:20;14.25;;;10.90;;
33006;SDS011;19361;51.598;7.650;2023-07-13T22:17:41;14.57;;;10.95;;
33006;SDS011;19361;51.598;7.650;2023-07-13T22:23:15;23.23;;;12.68;;
33006;SDS011;19361;51.598;7.650;2023-07-13T22:28:42;18.27;;;12.48;;
33006;SDS011;19361;51.598;7.650;2023-07-13T22:34:03;15.43;;;8.93;;
33006;SDS011;19361;51.598;7.650;2023-07-13T22:39:33;12.75;;;8.98;;
33006;SDS011;19361;51.598;7.650;2023-07-13T22:44:54;14.65;;;9.25;;
33006;SDS011;19361;51.598;7.650;2023-07-13T22:50:16;9.68;;;7.85;;
33006;SDS011;19361;51.598;7.650;2023-07-13T22:55:37;14.35;;;9.48;;
33006;SDS011;19361;51.598;7.650;2023-07-13T23:00:59;12.38;;;8.52;;
33006;SDS011;19361;51.598;7.650;2023-07-13T23:06:22;8.35;;;6.13;;
33006;SDS011;19361;51.598;7.650;2023-07-13T23:11:51;12.60;;;6.40;;
33006;SDS011;19361;51.598;7.650;2023-07-13T23:17:13;9.48;;;5.22;;
33006;SDS011;19361;51.598;7.650;2023-07-13T23:22:34;11.90;;;6.72;;
33006;SDS011;19361;51.598;7.650;2023-07-13T23:27:55;12.75;;;6.63;;
33006;SDS011;19361;51.598;7.650;2023-07-13T23:33:34;9.25;;;6.18;;
33006;SDS011;19361;51.598;7.650;2023-07-13T23:38:55;7.88;;;5.13;;
33006;SDS011;19361;51.598;7.650;2023-07-13T23:44:16;7.68;;;5.90;;
33006;SDS011;19361;51.598;7.650;2023-07-13T23:49:38;10.55;;;6.70;;
33006;SDS011;19361;51.598;7.650;2023-07-13T23:54:59;8.35;;;5.40;;
